Open Full Screen Window  High Contrast Mode
Wind Gusting 00 knots
05
March 27, 2015 11:54 PM EDT
Weather Information
Wind Direction
  330 °
Wind Speed
  05 kt (6 mph)
Wind Gust
  00 kt (0 mph)
Altimeter
30.10 in
Visibility
10 SM
Temperature
-01° C
30° F
Dewpoint
-07° C
19° F
Humidity
64%
1hr Rain Fall
00.00 in.
24hr Rain Fall
00.00 in.
Sky Condition
Overcast @ 6,000 ft
VFR

METAR KI69 280354Z AUTO 33005KT 10SM OVC060 M01/M07 A3010 RMK AO1

*Background is not an actual portrayal of the airport.